CEB456 RPVI-RPLL
Flight info
| Callsign | CEB456 |
|---|---|
| Flight time | 0h 48m |
| Altitude | 32000 |
| Route | LAMBO1N LAMBO B472 IBAGO IBAGO3R |
| Aircraft | A320/M-SDE3FGHIRWY/LB1 |
Departure
| Time | 2026-04-24 15:00 |
|---|---|
| Airport | Iloilo International Airport (RPVI) |
Arrival
| Time | 2026-04-24 15:48 |
|---|---|
| Airport | Ninoy Aquino International Airport (RPLL) |
| Time | Latitude | Longitude | Altitude | Speed | Heading |
|---|---|---|---|---|---|
| 2026-04-24 14:41 | 10.83164 | 122.49662 | 140 ft | 0 kts | 110° |
| 2026-04-24 14:49 | 10.83168 | 122.49652 | 140 ft | 3 kts | 111° |
| 2026-04-24 14:50 | 10.83176 | 122.49633 | 140 ft | 3 kts | 117° |
| 2026-04-24 14:50 | 10.83186 | 122.49615 | 140 ft | 3 kts | 126° |
| 2026-04-24 14:50 | 10.83197 | 122.49602 | 140 ft | 3 kts | 144° |
| 2026-04-24 14:50 | 10.83212 | 122.49594 | 140 ft | 2 kts | 190° |
| 2026-04-24 14:51 | 10.83217 | 122.49595 | 140 ft | 0 kts | 200° |
| 2026-04-24 14:53 | 10.83213 | 122.49594 | 140 ft | 2 kts | 200° |
| 2026-04-24 14:53 | 10.83191 | 122.49585 | 140 ft | 5 kts | 200° |
| 2026-04-24 14:53 | 10.83165 | 122.49575 | 140 ft | 7 kts | 200° |
| 2026-04-24 14:53 | 10.83113 | 122.49556 | 140 ft | 9 kts | 200° |
| 2026-04-24 14:54 | 10.83054 | 122.49533 | 140 ft | 9 kts | 204° |
| 2026-04-24 14:54 | 10.83036 | 122.49467 | 140 ft | 7 kts | 285° |
| 2026-04-24 14:54 | 10.83046 | 122.49435 | 140 ft | 7 kts | 288° |
| 2026-04-24 14:54 | 10.83060 | 122.49393 | 140 ft | 6 kts | 289° |
| 2026-04-24 14:55 | 10.83072 | 122.49359 | 141 ft | 4 kts | 289° |
| 2026-04-24 14:55 | 10.83081 | 122.49334 | 141 ft | 4 kts | 289° |
| 2026-04-24 14:55 | 10.83089 | 122.49285 | 141 ft | 10 kts | 260° |
| 2026-04-24 14:55 | 10.83031 | 122.49233 | 141 ft | 12 kts | 198° |
| 2026-04-24 14:56 | 10.82956 | 122.49206 | 141 ft | 11 kts | 201° |
| 2026-04-24 14:56 | 10.82887 | 122.49179 | 141 ft | 12 kts | 199° |
| 2026-04-24 14:56 | 10.82798 | 122.49148 | 141 ft | 14 kts | 199° |
| 2026-04-24 14:56 | 10.82708 | 122.49113 | 140 ft | 14 kts | 201° |
| 2026-04-24 14:57 | 10.82616 | 122.49080 | 141 ft | 13 kts | 200° |
| 2026-04-24 14:57 | 10.82538 | 122.49050 | 142 ft | 11 kts | 200° |
| 2026-04-24 14:57 | 10.82456 | 122.49020 | 143 ft | 15 kts | 199° |
| 2026-04-24 14:57 | 10.82360 | 122.48985 | 143 ft | 11 kts | 198° |
| 2026-04-24 14:58 | 10.82298 | 122.48988 | 143 ft | 10 kts | 172° |
| 2026-04-24 14:58 | 10.82254 | 122.48973 | 143 ft | 4 kts | 244° |
| 2026-04-24 14:58 | 10.82260 | 122.48954 | 143 ft | 3 kts | 309° |
| 2026-04-24 14:58 | 10.82283 | 122.48954 | 143 ft | 4 kts | 21° |
| 2026-04-24 14:59 | 10.82307 | 122.48965 | 143 ft | 3 kts | 22° |
| 2026-04-24 14:59 | 10.82335 | 122.48976 | 143 ft | 11 kts | 21° |
| 2026-04-24 14:59 | 10.82651 | 122.49092 | 141 ft | 86 kts | 20° |
| 2026-04-24 14:59 | 10.83302 | 122.49333 | 142 ft | 137 kts | 20° |
| 2026-04-24 15:00 | 10.84297 | 122.49697 | 489 ft | 154 kts | 19° |
| 2026-04-24 15:00 | 10.85273 | 122.50059 | 1204 ft | 149 kts | 21° |
| 2026-04-24 15:00 | 10.86235 | 122.50416 | 2025 ft | 147 kts | 25° |
| 2026-04-24 15:00 | 10.87261 | 122.50801 | 2495 ft | 168 kts | 24° |
| 2026-04-24 15:01 | 10.88429 | 122.51243 | 2803 ft | 190 kts | 24° |
| 2026-04-24 15:01 | 10.89745 | 122.51738 | 3121 ft | 213 kts | 24° |
| 2026-04-24 15:01 | 10.91209 | 122.52284 | 3548 ft | 234 kts | 23° |
| 2026-04-24 15:01 | 10.92809 | 122.52744 | 4160 ft | 251 kts | 6° |
| 2026-04-24 15:02 | 10.94580 | 122.52326 | 4740 ft | 274 kts | 334° |
| 2026-04-24 15:02 | 10.96198 | 122.51213 | 5594 ft | 283 kts | 322° |
| 2026-04-24 15:02 | 10.97679 | 122.49902 | 6474 ft | 288 kts | 319° |
| 2026-04-24 15:02 | 10.99171 | 122.48523 | 7329 ft | 291 kts | 320° |
| 2026-04-24 15:03 | 11.00707 | 122.47153 | 8194 ft | 295 kts | 321° |
| 2026-04-24 15:03 | 11.02296 | 122.45810 | 9041 ft | 298 kts | 322° |
| 2026-04-24 15:03 | 11.03932 | 122.44493 | 9883 ft | 302 kts | 323° |
| 2026-04-24 15:03 | 11.05617 | 122.43179 | 10503 ft | 313 kts | 324° |
| 2026-04-24 15:04 | 11.07422 | 122.41794 | 10761 ft | 336 kts | 324° |
| 2026-04-24 15:04 | 11.09332 | 122.40339 | 11068 ft | 355 kts | 324° |
| 2026-04-24 15:04 | 11.11343 | 122.38809 | 11701 ft | 362 kts | 324° |
| 2026-04-24 15:04 | 11.13200 | 122.37393 | 12361 ft | 367 kts | 324° |
| 2026-04-24 15:05 | 11.15158 | 122.35903 | 13053 ft | 371 kts | 325° |
| 2026-04-24 15:05 | 11.17404 | 122.34573 | 13769 ft | 374 kts | 336° |
| 2026-04-24 15:05 | 11.19823 | 122.33525 | 14402 ft | 378 kts | 338° |
| 2026-04-24 15:05 | 11.22239 | 122.32487 | 15011 ft | 381 kts | 338° |
| 2026-04-24 15:06 | 11.24687 | 122.31433 | 15602 ft | 385 kts | 338° |
| 2026-04-24 15:06 | 11.27167 | 122.30359 | 16175 ft | 389 kts | 338° |
| 2026-04-24 15:06 | 11.29669 | 122.29272 | 16757 ft | 393 kts | 338° |
| 2026-04-24 15:06 | 11.32212 | 122.28165 | 17326 ft | 397 kts | 338° |
| 2026-04-24 15:07 | 11.34419 | 122.27203 | 17817 ft | 400 kts | 338° |
| 2026-04-24 15:07 | 11.37009 | 122.26074 | 18359 ft | 403 kts | 338° |
| 2026-04-24 15:07 | 11.39592 | 122.24955 | 18851 ft | 407 kts | 338° |
| 2026-04-24 15:07 | 11.41868 | 122.23978 | 19281 ft | 410 kts | 338° |
| 2026-04-24 15:08 | 11.44512 | 122.22846 | 19786 ft | 414 kts | 338° |
| 2026-04-24 15:08 | 11.47172 | 122.21698 | 20293 ft | 417 kts | 338° |
| 2026-04-24 15:08 | 11.49862 | 122.20531 | 20799 ft | 421 kts | 338° |
| 2026-04-24 15:08 | 11.52566 | 122.19352 | 21276 ft | 425 kts | 338° |
| 2026-04-24 15:09 | 11.55274 | 122.18168 | 21756 ft | 428 kts | 338° |
| 2026-04-24 15:09 | 11.58040 | 122.16960 | 22239 ft | 432 kts | 338° |
| 2026-04-24 15:09 | 11.60435 | 122.15919 | 22632 ft | 435 kts | 338° |
| 2026-04-24 15:09 | 11.63250 | 122.14699 | 23112 ft | 438 kts | 338° |
| 2026-04-24 15:10 | 11.66042 | 122.13489 | 23575 ft | 441 kts | 337° |
| 2026-04-24 15:10 | 11.68902 | 122.12249 | 23939 ft | 444 kts | 337° |
| 2026-04-24 15:10 | 11.71758 | 122.11009 | 24331 ft | 446 kts | 337° |
| 2026-04-24 15:10 | 11.74595 | 122.09774 | 24713 ft | 448 kts | 337° |
| 2026-04-24 15:11 | 11.77475 | 122.08520 | 25106 ft | 449 kts | 336° |
| 2026-04-24 15:11 | 11.80342 | 122.07270 | 25496 ft | 451 kts | 336° |
| 2026-04-24 15:11 | 11.83253 | 122.06001 | 25875 ft | 452 kts | 336° |
| 2026-04-24 15:11 | 11.86121 | 122.04751 | 26259 ft | 453 kts | 336° |
| 2026-04-24 15:12 | 11.89040 | 122.03478 | 26648 ft | 454 kts | 336° |
| 2026-04-24 15:12 | 11.94862 | 122.00941 | 27399 ft | 457 kts | 336° |
| 2026-04-24 15:12 | 11.97401 | 121.99835 | 27709 ft | 458 kts | 336° |
| 2026-04-24 15:13 | 12.00240 | 121.98599 | 28044 ft | 460 kts | 336° |
| 2026-04-24 15:13 | 12.03213 | 121.97304 | 28385 ft | 461 kts | 335° |
| 2026-04-24 15:13 | 12.05778 | 121.96187 | 28668 ft | 463 kts | 335° |
| 2026-04-24 15:13 | 12.08733 | 121.94901 | 28982 ft | 464 kts | 335° |
| 2026-04-24 15:14 | 12.11696 | 121.93609 | 29294 ft | 466 kts | 335° |
| 2026-04-24 15:14 | 12.14702 | 121.92301 | 29590 ft | 467 kts | 335° |
| 2026-04-24 15:14 | 12.17688 | 121.91003 | 29874 ft | 469 kts | 335° |
| 2026-04-24 15:14 | 12.20707 | 121.89690 | 30129 ft | 470 kts | 335° |
| 2026-04-24 15:15 | 12.23728 | 121.88371 | 30348 ft | 471 kts | 335° |
| 2026-04-24 15:15 | 12.26735 | 121.87053 | 30576 ft | 473 kts | 335° |
| 2026-04-24 15:15 | 12.29377 | 121.85894 | 30827 ft | 472 kts | 335° |
| 2026-04-24 15:15 | 12.32361 | 121.84588 | 31116 ft | 471 kts | 335° |
| 2026-04-24 15:16 | 12.35378 | 121.83273 | 31403 ft | 471 kts | 335° |
| 2026-04-24 15:16 | 12.37997 | 121.82134 | 31654 ft | 471 kts | 335° |
| 2026-04-24 15:16 | 12.41022 | 121.80814 | 31901 ft | 471 kts | 335° |
| 2026-04-24 15:16 | 12.44047 | 121.79492 | 31963 ft | 467 kts | 334° |
| 2026-04-24 15:17 | 12.49909 | 121.76929 | 31967 ft | 462 kts | 334° |
| 2026-04-24 15:17 | 12.55866 | 121.74315 | 31972 ft | 461 kts | 334° |
| 2026-04-24 15:18 | 12.61762 | 121.71723 | 31967 ft | 461 kts | 334° |
| 2026-04-24 15:18 | 12.67661 | 121.69135 | 31980 ft | 461 kts | 334° |
| 2026-04-24 15:19 | 12.73543 | 121.66558 | 31980 ft | 461 kts | 334° |
| 2026-04-24 15:19 | 12.79429 | 121.63977 | 31978 ft | 461 kts | 334° |
| 2026-04-24 15:20 | 12.85331 | 121.61384 | 31980 ft | 461 kts | 335° |
| 2026-04-24 15:20 | 12.90850 | 121.58963 | 31987 ft | 461 kts | 335° |
| 2026-04-24 15:21 | 12.96383 | 121.56530 | 31755 ft | 461 kts | 335° |
| 2026-04-24 15:21 | 12.99333 | 121.55232 | 31522 ft | 461 kts | 335° |
| 2026-04-24 15:21 | 13.01899 | 121.54102 | 31312 ft | 461 kts | 335° |
| 2026-04-24 15:22 | 13.04819 | 121.52815 | 31084 ft | 462 kts | 335° |
| 2026-04-24 15:22 | 13.07812 | 121.51497 | 30846 ft | 462 kts | 335° |
| 2026-04-24 15:22 | 13.10248 | 121.50426 | 30661 ft | 459 kts | 335° |
| 2026-04-24 15:23 | 13.16064 | 121.47863 | 29619 ft | 446 kts | 335° |
| 2026-04-24 15:23 | 13.21689 | 121.45387 | 27759 ft | 455 kts | 335° |
| 2026-04-24 15:23 | 13.24406 | 121.44192 | 27126 ft | 452 kts | 336° |
| 2026-04-24 15:24 | 13.32867 | 121.40459 | 26232 ft | 412 kts | 336° |
| 2026-04-24 15:25 | 13.37107 | 121.38590 | 25645 ft | 384 kts | 336° |
| 2026-04-24 15:25 | 13.42729 | 121.36109 | 24108 ft | 374 kts | 336° |
| 2026-04-24 15:26 | 13.49509 | 121.33111 | 22018 ft | 364 kts | 336° |
| 2026-04-24 15:27 | 13.55691 | 121.29419 | 20813 ft | 355 kts | 313° |
| 2026-04-24 15:27 | 13.60332 | 121.23990 | 19748 ft | 349 kts | 310° |
| 2026-04-24 15:28 | 13.66457 | 121.16862 | 18432 ft | 340 kts | 311° |
| 2026-04-24 15:29 | 13.69365 | 121.13458 | 17737 ft | 336 kts | 311° |
| 2026-04-24 15:30 | 13.73765 | 121.08313 | 16676 ft | 330 kts | 311° |
| 2026-04-24 15:31 | 13.78866 | 121.02332 | 15083 ft | 323 kts | 310° |
| 2026-04-24 15:32 | 13.86980 | 120.97810 | 12953 ft | 313 kts | 354° |
| 2026-04-24 15:33 | 13.95461 | 120.96915 | 10956 ft | 301 kts | 353° |
| 2026-04-24 15:33 | 14.01605 | 120.96266 | 9423 ft | 293 kts | 353° |
| 2026-04-24 15:34 | 14.05621 | 120.95844 | 8665 ft | 287 kts | 353° |
| 2026-04-24 15:35 | 14.08911 | 120.95497 | 8023 ft | 285 kts | 354° |
| 2026-04-24 15:35 | 14.13740 | 120.94991 | 7280 ft | 273 kts | 355° |
| 2026-04-24 15:36 | 14.17792 | 120.94195 | 6838 ft | 258 kts | 339° |
| 2026-04-24 15:36 | 14.19384 | 120.93346 | 6495 ft | 258 kts | 332° |
| 2026-04-24 15:37 | 14.20943 | 120.92434 | 6218 ft | 255 kts | 332° |
| 2026-04-24 15:37 | 14.22445 | 120.91544 | 6090 ft | 243 kts | 332° |
| 2026-04-24 15:37 | 14.23397 | 120.90980 | 5974 ft | 233 kts | 332° |
| 2026-04-24 15:37 | 14.25245 | 120.89887 | 5497 ft | 227 kts | 332° |
| 2026-04-24 15:38 | 14.26607 | 120.89080 | 5138 ft | 222 kts | 332° |
| 2026-04-24 15:38 | 14.27473 | 120.88566 | 5063 ft | 213 kts | 332° |
| 2026-04-24 15:38 | 14.29133 | 120.87583 | 4765 ft | 202 kts | 329° |
| 2026-04-24 15:38 | 14.30232 | 120.86692 | 4443 ft | 201 kts | 317° |
| 2026-04-24 15:39 | 14.30784 | 120.85936 | 4180 ft | 200 kts | 292° |
| 2026-04-24 15:39 | 14.30714 | 120.84113 | 4069 ft | 199 kts | 238° |
| 2026-04-24 15:39 | 14.30123 | 120.83405 | 4060 ft | 197 kts | 215° |
| 2026-04-24 15:39 | 14.28499 | 120.82597 | 4059 ft | 196 kts | 186° |
| 2026-04-24 15:40 | 14.27589 | 120.82618 | 4053 ft | 194 kts | 162° |
| 2026-04-24 15:40 | 14.26281 | 120.83739 | 4049 ft | 189 kts | 110° |
| 2026-04-24 15:40 | 14.26126 | 120.84612 | 4054 ft | 189 kts | 84° |
| 2026-04-24 15:40 | 14.26618 | 120.85846 | 4060 ft | 190 kts | 52° |
| 2026-04-24 15:41 | 14.27453 | 120.86945 | 3869 ft | 198 kts | 51° |
| 2026-04-24 15:41 | 14.28598 | 120.87651 | 3766 ft | 196 kts | 6° |
| 2026-04-24 15:41 | 14.29904 | 120.87304 | 3740 ft | 201 kts | 333° |
| 2026-04-24 15:41 | 14.31139 | 120.86600 | 3690 ft | 203 kts | 331° |
| 2026-04-24 15:42 | 14.32360 | 120.85852 | 3654 ft | 203 kts | 330° |
| 2026-04-24 15:42 | 14.33575 | 120.85104 | 3608 ft | 203 kts | 330° |
| 2026-04-24 15:42 | 14.34787 | 120.84364 | 3561 ft | 202 kts | 330° |
| 2026-04-24 15:42 | 14.36000 | 120.83630 | 3514 ft | 202 kts | 331° |
| 2026-04-24 15:43 | 14.37215 | 120.82903 | 3466 ft | 202 kts | 333° |
| 2026-04-24 15:43 | 14.38544 | 120.82525 | 3328 ft | 198 kts | 2° |
| 2026-04-24 15:43 | 14.39827 | 120.82871 | 3158 ft | 194 kts | 32° |
| 2026-04-24 15:43 | 14.40786 | 120.83816 | 2995 ft | 192 kts | 60° |
| 2026-04-24 15:44 | 14.41431 | 120.84993 | 2860 ft | 186 kts | 61° |
| 2026-04-24 15:44 | 14.42077 | 120.86163 | 2651 ft | 189 kts | 61° |
| 2026-04-24 15:44 | 14.42727 | 120.87331 | 2463 ft | 187 kts | 60° |
| 2026-04-24 15:44 | 14.43372 | 120.88488 | 2302 ft | 184 kts | 61° |
| 2026-04-24 15:45 | 14.43993 | 120.89601 | 2136 ft | 175 kts | 59° |
| 2026-04-24 15:45 | 14.44593 | 120.90682 | 1987 ft | 170 kts | 61° |
| 2026-04-24 15:45 | 14.45155 | 120.91690 | 1816 ft | 151 kts | 61° |
| 2026-04-24 15:45 | 14.45668 | 120.92611 | 1694 ft | 146 kts | 59° |
| 2026-04-24 15:46 | 14.46164 | 120.93504 | 1477 ft | 141 kts | 61° |
| 2026-04-24 15:46 | 14.46640 | 120.94358 | 1301 ft | 136 kts | 61° |
| 2026-04-24 15:46 | 14.47106 | 120.95195 | 1139 ft | 136 kts | 61° |
| 2026-04-24 15:46 | 14.47578 | 120.96041 | 954 ft | 136 kts | 60° |
| 2026-04-24 15:47 | 14.48066 | 120.96884 | 733 ft | 137 kts | 60° |
| 2026-04-24 15:47 | 14.48546 | 120.97731 | 526 ft | 137 kts | 63° |
| 2026-04-24 15:47 | 14.49005 | 120.98594 | 377 ft | 137 kts | 63° |
| 2026-04-24 15:47 | 14.49486 | 120.99443 | 251 ft | 137 kts | 63° |
| 2026-04-24 15:48 | 14.49954 | 121.00298 | 84 ft | 135 kts | 62° |
| 2026-04-24 15:48 | 14.50349 | 121.01039 | 68 ft | 94 kts | 60° |
| 2026-04-24 15:48 | 14.50616 | 121.01509 | 69 ft | 65 kts | 58° |
| 2026-04-24 15:48 | 14.50761 | 121.01714 | 63 ft | 14 kts | 38° |
| 2026-04-24 15:49 | 14.50832 | 121.01772 | 65 ft | 11 kts | 38° |
| 2026-04-24 15:49 | 14.50894 | 121.01781 | 64 ft | 8 kts | 326° |